Snel-info
Kleurcode:
Geel
Er mag gevlogen worden.
Voorzichtigheid geboden!
Laatste update: 09/07/2017
Kleurcode informatie

Grasmaaien:

Geen maaibeurten gepland.

Volgende vliegdagen:

  • wo 1 november : Allerheiligen
  • wo 15 november : Dag vd Dynastie
  • ma 25 december : Kerstmis

Er mag t.e.m. 31 augustus elke weekdag gevlogen worden tussen 17u15 en 21u00. Het terrein mag niet vroeger betreden worden.
Alle extra vliegdagen

Weersituatie op PMF:

060_Jets_Over_Pampa_2007__52_Hans.jpg

Huidige weersituatie

Huidig weerbeeld in Kleine Brogel, Belgium
Huidige wind in Kleine Brogel, Belgium

Dit is het bericht voor Kleine Brogel, Belgium en werd 23 minuten geleden gemaakt.
De wind waaide met een snelheid van 0.5 meter per seconde (1.9 km/h) uit verschillende richtingen..
De temperatuur was 12 °C. De atmosferische druk was 1021 hPa. De relative luchtvochtigheid was 100.0%.
Het was zwaar bewolkt op een hoogte van 1524 meter. Het algemene zicht was meer dan 10 kilometer.

De onbewerkte METAR gegevens waarop dit bericht is gebaseerd zijn:
EBBL 220455Z VRB01KT 9999 BKN050 12/12 Q1021 BLU BLU


Opmerking:
De wind blijkt op PMF meestal iets krachtiger te waaien dan op Kleine Brogel. De windrichting klopt dan weer wel.




KMI

De weersvoorspellingen van het KMI vind je via deze link.


Buienradar

Op www.buienradar.nl kun je zelf zien waar het nu en de komende uren regent.